Terminal Aerodrome Forecast
Issued by NWS

Home | Current Version | Previous Version | Text Only | Print | Product List | Glossary On
Versions: 1 2 3 4 5 6 7 8 9 10 11 12 13 14 15 16 17 18
000
FTUS42 KTAE 290400 AAC
TAFVLD
TAF AMD
KVLD 290401Z 2904/2924 20003KT 1SM BR OVC002
     FM290900 00000KT 1/2SM FG VV002
     FM291600 23005KT 5SM -SHRA BR BKN020=

USA.gov is the U.S. government's official web portal to all federal, state and local government web resources and services.